Latest Coastal Weather Observations for South Johnstone

IDQ60701

Issued at 3:55 pm EST Thursday 24 April 2014 (issued every 10 minutes, with the page automatically refreshed every 10 minutes)

About coastal observations | Map of coastal stations | Coastal observations for QLD | Marine services | Other Formats
Station Details ID: 032037 Name: SOUTH JOHNSTONE EXP STN Lat: -17.61 Lon: 146.00 Height: 18.3 m
Data from the previous 72 hours. | See also: Recent months at South Johnstone
Date/Time
EST
Temp

°C
Wind Pressure Rain
since 9am
mm
Weather Cloud Vis
km
Sea
Height
m
Swell
Dir
 
Speed
knots
Gust
knots
hPa Trend Height
m
Period
s
Dir
24/03:30pm 24.6 S 6 12 1010.2 - 40.4 - - - - - - -
24/03:00pm 24.2 SSW 6 11 1010.0 - 37.2 - - - - - - -
24/02:30pm 23.8 SSW 5 8 1010.6 - 34.2 - - - - - - -
24/02:00pm 23.6 S 9 15 1010.9 - 30.6 - - - - - - -
24/01:30pm 23.5 S 7 12 1010.9 - 27.0 - - - - - - -
24/01:00pm 23.8 SSE 8 13 1011.4 - 23.2 - - - - - - -
24/12:30pm 24.0 SSE 8 17 1011.6 - 19.8 - - - - - - -
24/12:00pm 24.1 S 8 12 1011.8 - 18.0 - - - - - - -
24/11:30am 23.9 S 9 14 1012.3 - 13.0 - - - - - - -
24/11:00am 24.1 S 9 13 1012.8 - 7.0 - - - - - - -
24/10:30am 24.2 SSW 8 15 1013.0 - 5.0 - - - - - - -
24/10:00am 24.2 SSW 9 14 1013.1 - 1.6 - - - - - - -
24/09:30am 24.2 S 8 13 1013.1 - 0.4 - - - - - - -
24/09:00am 24.0 SSW 9 16 1012.9 - 19.4 - - - - - - -
24/08:30am 23.6 SSW 7 12 1012.9 - 17.2 - - - - - - -
24/08:00am 23.1 SSE 5 11 1012.7 - 14.8 - - - - - - -
24/07:30am 23.4 S 5 8 1012.4 - 13.2 - - - - - - -
24/07:00am 23.6 SSW 6 11 1012.0 - 12.4 - - - - - - -
24/06:30am 23.8 S 8 18 1011.8 - 12.4 - - - - - - -
24/06:00am 24.3 S 9 13 1011.3 - 12.0 - - - - - - -
24/05:30am 24.1 SSW 9 14 1011.1 - 12.0 - - - - - - -
24/05:00am 24.2 S 9 16 1011.0 - 12.0 - - - - - - -
24/04:30am 24.3 S 7 12 1011.1 - 12.0 - - - - - - -
24/04:00am 24.4 S 7 9 1011.0 - 12.0 - - - - - - -
24/03:30am 24.5 S 7 11 1011.3 - 12.0 - - - - - - -
24/03:00am 24.4 S 6 9 1011.3 - 12.0 - - - - - - -
24/02:30am 24.4 S 6 9 1011.5 - 12.0 - - - - - - -
24/02:00am 24.4 S 6 9 1011.8 - 12.0 - - - - - - -
24/01:30am 24.5 SSW 7 9 1012.1 - 12.0 - - - - - - -
24/01:00am 24.1 SSE 4 7 1012.7 - 12.0 - - - - - - -
24/12:30am 24.9 S 6 8 1013.0 - 10.8 - - - - - - -
24/12:00am 24.7 SSW 8 13 1013.1 - 10.8 - - - - - - -
 
Date/Time
EST
Temp

°C
Wind Pressure Rain
since 9am
mm
Weather Cloud Vis
km
Sea
Height
m
Swell
Dir
 
Speed
knots
Gust
knots
hPa Trend Height
m
Period
s
Dir
23/11:30pm 24.1 SW 6 10 1013.4 - 10.8 - - - - - - -
23/11:00pm 25.1 S 4 7 1013.6 - 9.0 - - - - - - -
23/10:30pm 24.8 S 3 5 1013.8 - 9.0 - - - - - - -
23/10:00pm 25.1 SSW 8 11 1013.9 - 9.0 - - - - - - -
23/09:30pm 25.0 SSW 7 13 1013.8 - 9.0 - - - - - - -
23/09:00pm 24.8 SSW 6 10 1013.6 - 9.0 - - - - - - -
23/08:30pm 24.6 SSW 7 12 1013.5 - 9.0 - - - - - - -
23/08:00pm 24.6 SSW 7 9 1013.3 - 8.4 - - - - - - -
23/07:30pm 24.8 SSW 7 11 1012.8 - 6.6 - - - - - - -
23/07:00pm 24.3 SW 5 9 1012.5 - 6.6 - - - - - - -
23/06:30pm 24.1 WSW 4 6 1012.3 - 6.4 - - - - - - -
23/06:00pm 24.3 SSW 8 13 1012.0 - 6.4 - - - - - - -
23/05:30pm 25.9 S 6 10 1012.0 - 2.2 - - - - - - -
23/05:00pm 26.0 S 6 9 1011.8 - 2.2 - - - - - - -
23/04:30pm 26.2 S 6 10 1011.4 - 2.2 - - - - - - -
23/04:00pm 26.5 SSE 8 13 1011.2 - 2.2 - - - - - - -
23/03:30pm 26.7 S 10 14 1011.4 - 2.2 - - - - - - -
23/03:00pm 26.8 SSE 8 12 1011.5 - 2.2 - - - - - - -
23/02:30pm 26.6 SSE 10 15 1011.6 - 2.2 - - - - - - -
23/02:00pm 27.1 SE 12 15 1011.7 - 2.2 - - - - - - -
23/01:30pm 26.1 SSE 11 17 1012.0 - 2.2 - - - - - - -
23/01:00pm 26.3 S 8 14 1012.4 - 2.2 - - - - - - -
23/12:30pm 26.2 SSE 7 13 1012.9 - 2.2 - - - - - - -
23/12:00pm 25.9 SSE 7 11 1013.2 - 2.0 - - - - - - -
23/11:30am 26.1 SSE 7 11 1013.9 - 2.0 - - - - - - -
23/11:00am 25.2 S 4 9 1014.3 - 1.4 - - - - - - -
23/10:30am 26.0 S 7 12 1014.4 - 0.8 - - - - - - -
23/10:00am 24.6 SSE 5 7 1014.4 - 0.8 - - - - - - -
23/09:30am 25.8 SSE 6 9 1014.4 - 0.0 - - - - - - -
23/09:00am 26.2 S 7 11 1014.1 - 4.4 - - - - - - -
23/08:30am 25.4 S 9 16 1014.1 - 4.4 - - - - - - -
23/08:00am 24.8 S 8 14 1013.7 - 4.4 - - - - - - -
23/07:30am 24.7 SSW 10 17 1013.9 - 4.4 - - - - - - -
23/07:00am 24.3 SSW 10 15 1013.4 - 4.4 - - - - - - -
23/06:30am 23.8 SSW 7 11 1013.1 - 4.4 - - - - - - -
23/06:00am 24.2 S 7 12 1012.8 - 4.2 - - - - - - -
23/05:30am 23.8 S 5 10 1012.8 - 4.2 - - - - - - -
23/05:00am 24.4 SSW 6 8 1012.7 - 4.0 - - - - - - -
23/04:30am 24.3 S 4 10 1012.7 - 4.0 - - - - - - -
23/04:00am 24.2 S 5 8 1012.7 - 4.0 - - - - - - -
23/03:30am 24.3 S 5 7 1012.7 - 4.0 - - - - - - -
23/03:00am 24.1 S 4 7 1012.8 - 4.0 - - - - - - -
23/02:30am 23.8 S 4 7 1013.1 - 3.8 - - - - - - -
23/02:00am 23.6 S 3 5 1013.5 - 3.8 - - - - - - -
23/01:30am 22.9 W 2 4 1013.9 - 3.8 - - - - - - -
23/01:00am 23.1 CALM 0 0 1014.3 - 3.6 - - - - - - -
23/12:30am 23.1 ESE 1 4 1014.9 - 3.4 - - - - - - -
23/12:00am 23.7 SSW 2 7 1014.9 - 1.8 - - - - - - -
 
Date/Time
EST
Temp

°C
Wind Pressure Rain
since 9am
mm
Weather Cloud Vis
km
Sea
Height
m
Swell
Dir
 
Speed
knots
Gust
knots
hPa Trend Height
m
Period
s
Dir
22/11:30pm 23.7 SE 3 6 1015.1 - 1.8 - - - - - - -
22/11:00pm 23.9 SSW 3 5 1015.1 - 1.8 - - - - - - -
22/10:30pm 24.4 S 5 8 1015.3 - 1.8 - - - - - - -
22/10:00pm 24.7 SSW 6 9 1015.5 - 1.8 - - - - - - -
22/09:30pm 24.6 SSW 6 8 1015.7 - 1.8 - - - - - - -
22/09:00pm 24.4 SSW 7 12 1015.8 - 1.8 - - - - - - -
22/08:30pm 24.2 SSW 6 11 1015.8 - 1.8 - - - - - - -
22/08:00pm 24.1 S 5 8 1015.4 - 1.8 - - - - - - -
22/07:30pm 24.1 S 7 12 1015.2 - 1.8 - - - - - - -
22/07:00pm 24.2 SSW 7 10 1014.9 - 1.8 - - - - - - -
22/06:30pm 24.1 SW 2 5 1014.7 - 1.6 - - - - - - -
22/06:00pm 25.0 SSW 4 6 1014.5 - 1.6 - - - - - - -
22/05:30pm 25.1 SSW 5 7 1014.5 - 1.6 - - - - - - -
22/05:00pm 25.1 S 4 6 1014.3 - 1.6 - - - - - - -
22/04:30pm 24.8 S 6 10 1014.0 - 1.6 - - - - - - -
22/04:00pm 24.8 S 4 7 1014.0 - 1.6 - - - - - - -
22/03:30pm 25.1 SE 9 15 1013.9 - 1.6 - - - - - - -
22/03:00pm 25.7 SSE 6 12 1013.8 - 1.6 - - - - - - -
22/02:30pm 26.2 SSE 7 12 1014.0 - 1.6 - - - - - - -
22/02:00pm 26.0 SSE 6 9 1014.2 - 1.6 - - - - - - -
22/01:30pm 25.3 S 8 12 1014.5 - 1.6 - - - - - - -
22/01:00pm 25.8 SE 7 11 1014.9 - 1.6 - - - - - - -
22/12:30pm 25.5 SSE 5 7 1015.3 - 1.6 - - - - - - -
22/12:00pm 23.8 E 8 16 1015.6 - 1.6 - - - - - - -
22/11:30am 26.6 SSE 5 9 1016.1 - 0.0 - - - - - - -
22/11:00am 26.6 S 5 7 1016.7 - 0.0 - - - - - - -
22/10:30am 25.8 S 4 7 1017.2 - 0.0 - - - - - - -
22/10:00am 24.6 SW 4 6 1017.3 - 0.0 - - - - - - -
22/09:30am 23.4 W 2 6 1017.4 - 0.0 - - - - - - -
22/09:00am 23.1 W 3 5 1017.0 - 19.4 - - - - - - -
22/08:30am 23.3 SSW 2 5 1016.7 - 19.4 - - - - - - -
22/08:00am 23.5 S 6 9 1016.5 - 19.4 - - - - - - -
22/07:30am 22.9 SSW 7 8 1016.4 - 19.2 - - - - - - -
22/07:00am 22.8 S 6 10 1016.2 - 19.2 - - - - - - -
22/06:30am 22.5 S 9 12 1015.9 - 19.0 - - - - - - -
22/06:00am 22.7 S 8 13 1015.6 - 19.0 - - - - - - -
22/05:30am 22.3 SSE 2 5 1015.4 - 18.8 - - - - - - -
22/05:00am 22.3 S 5 7 1015.2 - 18.0 - - - - - - -
22/04:30am 22.3 S 4 7 1015.1 - 16.8 - - - - - - -
22/04:00am 22.3 SE 4 6 1015.2 - 15.4 - - - - - - -
22/03:30am 22.3 SE 5 8 1015.4 - 14.8 - - - - - - -
22/03:00am 22.4 SSE 4 7 1015.3 - 13.8 - - - - - - -
22/02:30am 22.2 S 7 10 1015.8 - 13.6 - - - - - - -
22/02:00am 22.2 S 7 11 1015.8 - 13.2 - - - - - - -
22/01:30am 22.0 SSE 5 9 1016.2 - 11.6 - - - - - - -
22/01:00am 22.5 SSW 7 11 1016.1 - 10.0 - - - - - - -
22/12:30am 22.6 SE 1 4 1016.6 - 8.6 - - - - - - -
22/12:00am 22.5 SSW 1 4 1016.7 - 7.4 - - - - - - -
 
Date/Time
EST
Temp

°C
Wind Pressure Rain
since 9am
mm
Weather Cloud Vis
km
Sea
Height
m
Swell
Dir
 
Speed
knots
Gust
knots
hPa Trend Height
m
Period
s
Dir
21/11:30pm 22.6 W 1 4 1016.8 - 3.4 - - - - - - -
21/11:00pm 22.8 WSW 4 5 1016.7 - 3.2 - - - - - - -
21/10:30pm 22.8 CALM 0 0 1016.8 - 2.8 - - - - - - -
21/10:00pm 22.9 CALM 0 0 1016.7 - 2.8 - - - - - - -
21/09:30pm 23.5 ESE 5 7 1016.7 - 2.4 - - - - - - -
21/09:00pm 23.7 S 5 10 1016.5 - 2.4 - - - - - - -
21/08:30pm 24.2 S 7 10 1016.6 - 2.0 - - - - - - -
21/08:00pm 24.0 S 7 10 1016.5 - 1.8 - - - - - - -
21/07:30pm 22.7 SSW 2 4 1016.3 - 1.8 - - - - - - -
21/07:00pm 22.8 WSW 2 6 1016.0 - 1.6 - - - - - - -
21/06:30pm 23.1 SSW 7 10 1015.8 - 1.4 - - - - - - -
21/06:00pm 22.9 S 3 6 1015.5 - 0.8 - - - - - - -
21/05:30pm 22.8 SW 3 5 1015.2 - 0.6 - - - - - - -
21/05:00pm 23.3 SE 2 5 1015.1 - 0.2 - - - - - - -
21/04:30pm 23.8 S 6 9 1014.7 - 0.2 - - - - - - -
21/04:00pm 23.7 S 7 10 1014.5 - 0.2 - - - - - - -

Other Formats:

Comma delimited format used in spreadsheet applications
http://www.bom.gov.au/fwo/IDQ60701/IDQ60701.95292.axf

JavaScript Object Notation format (JSON) in row-major order
http://www.bom.gov.au/fwo/IDQ60701/IDQ60701.95292.json